Time;durP1;ratioP1;P1;durP2;ratioP2;P2;SDS_P1;SDS_P2;PMS_P1;PMS_P2;Temp;Humidity;BMP_temperature;BMP_pressure;BME280_temperature;BME280_humidity;BME280_pressure;Samples;Min_cycle;Max_cycle;Signal;HPM_P1;HPM_P2
2023/09/22 00:02:09;;;;;;;3.13;2.05;;;;;;;;;;5034786;28;20017;-73
2023/09/22 00:04:35;;;;;;;7.78;2.83;;;;;;;;;;5018076;28;20025;-73
2023/09/22 00:07:01;;;;;;;3.20;2.53;;;;;;;;;;5036057;28;20052;-73
2023/09/22 00:09:26;;;;;;;3.20;2.13;;;;;;;;;;5034629;28;20472;-73
2023/09/22 00:11:52;;;;;;;9.73;3.42;;;;;;;;;;5034191;28;20096;-73
2023/09/22 00:14:17;;;;;;;3.58;2.50;;;;;;;;;;5034682;28;20091;-73
2023/09/22 00:16:42;;;;;;;4.80;2.60;;;;;;;;;;5035942;28;20071;-73
2023/09/22 00:19:08;;;;;;;4.72;3.60;;;;;;;;;;5034215;28;20057;-74
2023/09/22 00:21:34;;;;;;;3.88;2.97;;;;;;;;;;5017530;28;20377;-73
2023/09/22 00:23:59;;;;;;;4.43;2.70;;;;;;;;;;5017977;28;20052;-73
2023/09/22 00:26:25;;;;;;;5.63;2.92;;;;;;;;;;5017751;28;20115;-73
2023/09/22 00:28:50;;;;;;;5.32;3.22;;;;;;;;;;5034872;28;20017;-74
2023/09/22 00:31:15;;;;;;;3.58;2.47;;;;;;;;;;5017575;28;20017;-74
2023/09/22 00:33:41;;;;;;;5.82;2.92;;;;;;;;;;5035347;28;20399;-73
2023/09/22 00:36:06;;;;;;;5.07;2.90;;;;;;;;;;5017648;28;20025;-73
2023/09/22 00:38:31;;;;;;;7.80;3.58;;;;;;;;;;5017569;28;20026;-73
2023/09/22 00:40:57;;;;;;;9.35;3.50;;;;;;;;;;5035049;28;20036;-73
2023/09/22 00:43:22;;;;;;;5.35;3.38;;;;;;;;;;5040594;28;20041;-74
2023/09/22 00:45:53;;;;;;;8.52;2.30;;;;;;;;;;5048765;28;20461;-74
2023/09/22 00:48:21;;;;;;;8.45;4.10;;;;;;;;;;5054811;28;20036;-73
2023/09/22 00:50:47;;;;;;;4.50;2.88;;;;;;;;;;5031618;28;20029;-73
2023/09/22 00:53:13;;;;;;;3.75;2.70;;;;;;;;;;5035414;28;20031;-73
2023/09/22 00:55:38;;;;;;;5.30;1.95;;;;;;;;;;5018895;28;20025;-74
2023/09/22 00:58:03;;;;;;;4.38;2.35;;;;;;;;;;5020478;28;20123;-72
2023/09/22 01:00:30;;;;;;;3.42;2.47;;;;;;;;;;5036689;28;20024;-74
2023/09/22 01:02:56;;;;;;;3.70;2.20;;;;;;;;;;5036896;28;20086;-74
2023/09/22 01:05:22;;;;;;;3.67;2.33;;;;;;;;;;5036386;28;20478;-73
2023/09/22 01:07:47;;;;;;;5.28;2.25;;;;;;;;;;5054628;28;20028;-73
2023/09/22 01:10:12;;;;;;;2.75;2.05;;;;;;;;;;5054789;28;20029;-73
2023/09/22 01:12:38;;;;;;;4.40;1.92;;;;;;;;;;5054698;28;20029;-73
2023/09/22 01:15:03;;;;;;;5.72;2.38;;;;;;;;;;5048779;28;20025;-73
2023/09/22 01:17:30;;;;;;;4.10;2.45;;;;;;;;;;5036742;28;20037;-74
2023/09/22 01:19:55;;;;;;;3.08;2.20;;;;;;;;;;5049492;28;20029;-73
2023/09/22 01:22:21;;;;;;;5.18;2.30;;;;;;;;;;5035108;28;20024;-74
2023/09/22 01:24:46;;;;;;;5.00;2.20;;;;;;;;;;5054350;28;20441;-74
2023/09/22 01:27:11;;;;;;;5.50;2.50;;;;;;;;;;5053982;28;20029;-73
2023/09/22 01:29:37;;;;;;;6.43;2.90;;;;;;;;;;5034184;28;20029;-75
2023/09/22 01:32:03;;;;;;;5.03;3.05;;;;;;;;;;5018047;28;20030;-74
2023/09/22 01:34:28;;;;;;;4.13;2.53;;;;;;;;;;5016432;28;20458;-74
2023/09/22 01:36:53;;;;;;;2.83;2.40;;;;;;;;;;5029614;28;20031;-74
2023/09/22 01:39:19;;;;;;;3.97;2.28;;;;;;;;;;5036035;28;20082;-74
2023/09/22 01:41:44;;;;;;;3.22;2.35;;;;;;;;;;5054066;28;20036;-73
2023/09/22 01:44:10;;;;;;;2.72;2.13;;;;;;;;;;5036639;28;20474;-73
2023/09/22 01:46:36;;;;;;;2.75;1.83;;;;;;;;;;5036741;28;20445;-74
2023/09/22 01:49:01;;;;;;;2.75;2.22;;;;;;;;;;5036304;28;20032;-73
2023/09/22 01:51:26;;;;;;;3.72;2.13;;;;;;;;;;5053579;28;20044;-73
2023/09/22 01:53:52;;;;;;;4.57;1.63;;;;;;;;;;5036021;28;20364;-73
2023/09/22 01:56:17;;;;;;;2.85;1.88;;;;;;;;;;5033659;28;20501;-73
2023/09/22 01:58:43;;;;;;;4.72;2.35;;;;;;;;;;5032404;28;20021;-74
2023/09/22 02:01:08;;;;;;;2.92;2.05;;;;;;;;;;5053373;28;20025;-73
2023/09/22 02:03:33;;;;;;;3.75;2.10;;;;;;;;;;5023571;28;20025;-73
2023/09/22 02:05:59;;;;;;;2.42;1.40;;;;;;;;;;5015779;28;20414;-74
2023/09/22 02:08:24;;;;;;;2.90;2.20;;;;;;;;;;5016734;28;20025;-73
2023/09/22 02:10:50;;;;;;;3.67;1.88;;;;;;;;;;5035665;28;20025;-73
2023/09/22 02:13:15;;;;;;;2.35;2.03;;;;;;;;;;5053484;28;20079;-73
2023/09/22 02:15:40;;;;;;;2.30;2.05;;;;;;;;;;5053061;28;20021;-73
2023/09/22 02:18:06;;;;;;;2.17;1.75;;;;;;;;;;5005702;28;20048;-73
2023/09/22 02:20:31;;;;;;;2.40;2.00;;;;;;;;;;5016908;28;20049;-74
2023/09/22 02:22:58;;;;;;;4.20;1.92;;;;;;;;;;5015411;28;20159;-73
2023/09/22 02:25:23;;;;;;;2.10;1.73;;;;;;;;;;5026745;28;20032;-73
2023/09/22 02:27:52;;;;;;;3.13;2.25;;;;;;;;;;5034162;28;20041;-73
2023/09/22 02:30:18;;;;;;;3.30;1.50;;;;;;;;;;5021129;28;20048;-73
2023/09/22 02:32:49;;;;;;;3.30;1.65;;;;;;;;;;5035077;28;20495;-73
2023/09/22 02:35:16;;;;;;;2.40;1.65;;;;;;;;;;5035985;28;20091;-73
2023/09/22 02:37:41;;;;;;;1.90;1.60;;;;;;;;;;5035311;28;20024;-73
2023/09/22 02:40:08;;;;;;;2.70;1.67;;;;;;;;;;5018388;28;20073;-73
2023/09/22 02:42:33;;;;;;;1.85;1.50;;;;;;;;;;5035195;28;20025;-73
2023/09/22 02:44:59;;;;;;;1.95;1.83;;;;;;;;;;5056358;28;20021;-74
2023/09/22 02:47:26;;;;;;;2.47;1.88;;;;;;;;;;5039069;28;20024;-73
2023/09/22 02:49:51;;;;;;;1.92;1.40;;;;;;;;;;5039197;28;20032;-74
2023/09/22 02:52:17;;;;;;;1.88;1.52;;;;;;;;;;5056672;28;20029;-73
2023/09/22 02:54:42;;;;;;;3.38;1.65;;;;;;;;;;5056845;28;20047;-73
2023/09/22 02:57:07;;;;;;;2.58;1.70;;;;;;;;;;5026577;28;20036;-73
2023/09/22 02:59:33;;;;;;;2.25;1.63;;;;;;;;;;5036674;28;20029;-73
2023/09/22 03:01:58;;;;;;;2.50;1.50;;;;;;;;;;5022048;28;20025;-73
2023/09/22 03:04:23;;;;;;;2.17;1.60;;;;;;;;;;5022302;28;20017;-73
2023/09/22 03:06:49;;;;;;;2.22;1.63;;;;;;;;;;5056512;28;20163;-74
2023/09/22 03:09:15;;;;;;;1.95;1.35;;;;;;;;;;5051947;28;20029;-73
2023/09/22 03:11:41;;;;;;;2.00;1.50;;;;;;;;;;5019046;28;20045;-73
2023/09/22 03:14:06;;;;;;;1.30;1.05;;;;;;;;;;5018755;28;20065;-73
2023/09/22 03:16:31;;;;;;;4.85;1.50;;;;;;;;;;5019064;28;20021;-73
2023/09/22 03:18:57;;;;;;;2.10;1.80;;;;;;;;;;5020049;28;20032;-74
2023/09/22 03:21:23;;;;;;;2.28;1.13;;;;;;;;;;5035580;28;20060;-74
2023/09/22 03:23:49;;;;;;;3.53;1.60;;;;;;;;;;5036612;28;20037;-74
2023/09/22 03:26:15;;;;;;;2.30;1.40;;;;;;;;;;5017446;28;20067;-74
2023/09/22 03:28:41;;;;;;;2.72;1.73;;;;;;;;;;5018815;28;20025;-73
2023/09/22 03:31:06;;;;;;;3.10;1.50;;;;;;;;;;5007320;28;20048;-74
2023/09/22 03:33:31;;;;;;;2.00;1.60;;;;;;;;;;5055746;28;20546;-74
2023/09/22 03:35:57;;;;;;;2.65;1.67;;;;;;;;;;5022195;28;20033;-73
2023/09/22 03:38:22;;;;;;;2.50;1.40;;;;;;;;;;5056339;28;20028;-73
2023/09/22 03:40:48;;;;;;;2.40;1.75;;;;;;;;;;5037940;28;20037;-73
2023/09/22 03:43:13;;;;;;;1.55;1.35;;;;;;;;;;5038358;28;20044;-73
2023/09/22 03:45:39;;;;;;;2.30;1.70;;;;;;;;;;5055778;28;20046;-75
2023/09/22 03:48:05;;;;;;;1.95;1.48;;;;;;;;;;5038512;28;20078;-73
2023/09/22 03:50:30;;;;;;;5.80;1.80;;;;;;;;;;5038161;28;20100;-73
2023/09/22 03:52:55;;;;;;;2.10;1.42;;;;;;;;;;5056102;28;20482;-73
2023/09/22 03:55:21;;;;;;;2.70;1.60;;;;;;;;;;5037795;28;20593;-73
2023/09/22 03:57:46;;;;;;;2.63;1.42;;;;;;;;;;5037767;28;20390;-74
2023/09/22 04:00:18;;;;;;;2.65;1.67;;;;;;;;;;5038384;28;20021;-73
2023/09/22 04:02:44;;;;;;;2.58;1.33;;;;;;;;;;5055981;28;20391;-73
2023/09/22 04:05:11;;;;;;;1.70;1.60;;;;;;;;;;5038223;28;20021;-73
2023/09/22 04:07:36;;;;;;;2.13;1.73;;;;;;;;;;5037810;28;20100;-73
2023/09/22 04:10:03;;;;;;;2.25;1.60;;;;;;;;;;5037964;28;20056;-73
2023/09/22 04:12:28;;;;;;;3.75;1.90;;;;;;;;;;5038082;28;20084;-73
2023/09/22 04:14:54;;;;;;;3.22;2.03;;;;;;;;;;5037818;28;20063;-73
2023/09/22 04:17:20;;;;;;;2.25;1.52;;;;;;;;;;5055706;28;20076;-73
2023/09/22 04:19:45;;;;;;;3.15;1.67;;;;;;;;;;5055248;28;20053;-73
2023/09/22 04:22:12;;;;;;;2.65;2.03;;;;;;;;;;5037837;28;20116;-73
2023/09/22 04:24:38;;;;;;;3.95;1.60;;;;;;;;;;5038096;28;20090;-73
2023/09/22 04:27:09;;;;;;;2.03;1.73;;;;;;;;;;5037789;28;20434;-73
2023/09/22 04:29:35;;;;;;;3.78;2.00;;;;;;;;;;5055285;28;20032;-73
2023/09/22 04:32:02;;;;;;;2.33;1.83;;;;;;;;;;5037441;28;20482;-73
2023/09/22 04:34:28;;;;;;;3.97;2.05;;;;;;;;;;5037491;28;20483;-73
2023/09/22 04:36:53;;;;;;;1.75;1.65;;;;;;;;;;5037755;28;20051;-73
2023/09/22 04:39:21;;;;;;;3.33;1.92;;;;;;;;;;5037283;28;20025;-73
2023/09/22 04:41:46;;;;;;;2.17;1.80;;;;;;;;;;5055130;28;20133;-74
2023/09/22 04:44:12;;;;;;;3.70;2.25;;;;;;;;;;5037254;28;20546;-73
2023/09/22 04:46:37;;;;;;;2.22;1.67;;;;;;;;;;5037676;28;20021;-73
2023/09/22 04:49:02;;;;;;;2.50;1.50;;;;;;;;;;5055710;28;20032;-73
2023/09/22 04:51:28;;;;;;;3.22;2.17;;;;;;;;;;5036741;28;20029;-73
2023/09/22 04:53:53;;;;;;;2.05;1.85;;;;;;;;;;5037503;28;20112;-73
2023/09/22 04:56:20;;;;;;;1.95;1.75;;;;;;;;;;5037146;28;20112;-72
2023/09/22 04:58:47;;;;;;;2.65;1.48;;;;;;;;;;5055028;28;20456;-73
2023/09/22 05:01:14;;;;;;;1.83;1.33;;;;;;;;;;5037532;28;20032;-73
2023/09/22 05:03:39;;;;;;;3.45;1.70;;;;;;;;;;5036836;28;20501;-74
2023/09/22 05:06:06;;;;;;;2.45;2.03;;;;;;;;;;5037098;28;20021;-73
2023/09/22 05:08:32;;;;;;;1.88;1.60;;;;;;;;;;5055521;28;20025;-73
2023/09/22 05:10:57;;;;;;;1.98;1.65;;;;;;;;;;5055319;28;20029;-73
2023/09/22 05:13:23;;;;;;;2.60;1.85;;;;;;;;;;5054614;28;20509;-73
2023/09/22 05:15:48;;;;;;;2.63;1.75;;;;;;;;;;5054805;28;20031;-72
2023/09/22 05:18:14;;;;;;;2.60;1.50;;;;;;;;;;5036801;28;20395;-73
2023/09/22 05:20:42;;;;;;;2.78;1.98;;;;;;;;;;5036937;28;20036;-73
2023/09/22 05:23:08;;;;;;;3.17;1.77;;;;;;;;;;5054415;28;20083;-72
2023/09/22 05:25:40;;;;;;;2.85;1.73;;;;;;;;;;5036175;28;20450;-73
2023/09/22 05:28:10;;;;;;;1.80;1.60;;;;;;;;;;5036427;28;20029;-72
2023/09/22 05:30:38;;;;;;;2.20;1.70;;;;;;;;;;5036604;28;20479;-72
2023/09/22 05:33:07;;;;;;;2.03;1.15;;;;;;;;;;5054514;28;20379;-72
2023/09/22 05:35:34;;;;;;;2.20;1.83;;;;;;;;;;5054298;28;20031;-72
2023/09/22 05:38:01;;;;;;;2.78;1.98;;;;;;;;;;5036603;28;20033;-72
2023/09/22 05:40:27;;;;;;;2.72;1.95;;;;;;;;;;5035879;28;20025;-73
2023/09/22 05:42:52;;;;;;;2.85;2.10;;;;;;;;;;5054307;28;20071;-72
2023/09/22 05:45:18;;;;;;;2.15;1.70;;;;;;;;;;5054139;28;20025;-73
2023/09/22 05:47:46;;;;;;;2.47;1.73;;;;;;;;;;5035839;28;20029;-73
2023/09/22 05:50:11;;;;;;;6.63;2.28;;;;;;;;;;5054093;28;20053;-73
2023/09/22 05:52:37;;;;;;;3.75;2.00;;;;;;;;;;5036312;28;20060;-73
2023/09/22 05:55:04;;;;;;;2.40;2.20;;;;;;;;;;5055041;28;20025;-73
2023/09/22 05:57:29;;;;;;;2.47;1.48;;;;;;;;;;5054659;28;20441;-73
2023/09/22 05:59:57;;;;;;;2.53;2.03;;;;;;;;;;5035959;28;20021;-73
2023/09/22 06:02:22;;;;;;;5.43;2.15;;;;;;;;;;5020455;28;20017;-72
2023/09/22 06:04:47;;;;;;;3.85;3.20;;;;;;;;;;5036296;28;20078;-72
2023/09/22 06:07:14;;;;;;;4.75;2.97;;;;;;;;;;5053285;28;20486;-73
2023/09/22 06:09:39;;;;;;;5.03;2.50;;;;;;;;;;5053853;28;20047;-73
2023/09/22 06:12:04;;;;;;;6.35;3.03;;;;;;;;;;5035822;28;20426;-72
2023/09/22 06:14:30;;;;;;;5.00;2.88;;;;;;;;;;5053150;28;20020;-73
2023/09/22 06:16:55;;;;;;;4.78;3.50;;;;;;;;;;5036287;28;20052;-73
2023/09/22 06:19:21;;;;;;;4.03;2.70;;;;;;;;;;5035475;28;20380;-73
2023/09/22 06:21:46;;;;;;;6.22;3.47;;;;;;;;;;5035368;28;20025;-73
2023/09/22 06:24:11;;;;;;;9.38;3.70;;;;;;;;;;5035614;28;20075;-73
2023/09/22 06:26:37;;;;;;;8.50;4.28;;;;;;;;;;5053350;28;20426;-73
2023/09/22 06:29:02;;;;;;;7.40;3.83;;;;;;;;;;5035634;28;20449;-73
2023/09/22 06:31:27;;;;;;;6.18;4.10;;;;;;;;;;5053367;28;20033;-73
2023/09/22 06:33:53;;;;;;;7.25;3.97;;;;;;;;;;5035207;28;20033;-73
2023/09/22 06:36:22;;;;;;;7.03;4.45;;;;;;;;;;5035722;28;20025;-73
2023/09/22 06:38:50;;;;;;;6.60;3.50;;;;;;;;;;5035310;28;20032;-74
2023/09/22 06:41:17;;;;;;;6.50;3.90;;;;;;;;;;5032792;28;20462;-73
2023/09/22 06:43:42;;;;;;;6.57;4.18;;;;;;;;;;5029160;28;20033;-73
2023/09/22 06:46:09;;;;;;;6.93;4.20;;;;;;;;;;5038482;28;20036;-74
2023/09/22 06:48:36;;;;;;;9.00;4.53;;;;;;;;;;5020890;28;20056;-73
2023/09/22 06:51:01;;;;;;;9.40;3.63;;;;;;;;;;4999268;28;20022;-73
2023/09/22 06:53:28;;;;;;;5.28;2.90;;;;;;;;;;5029380;28;20028;-73
2023/09/22 06:56:03;;;;;;;4.55;2.63;;;;;;;;;;5029789;28;20052;-73
2023/09/22 06:58:29;;;;;;;4.75;2.97;;;;;;;;;;5015627;28;20029;-73
2023/09/22 07:00:54;;;;;;;4.93;3.30;;;;;;;;;;5032670;28;20040;-73
2023/09/22 07:03:19;;;;;;;4.70;2.72;;;;;;;;;;5033121;28;20028;-73
2023/09/22 07:05:45;;;;;;;5.05;3.38;;;;;;;;;;5033312;28;20546;-73
2023/09/22 07:08:11;;;;;;;5.47;3.33;;;;;;;;;;5015892;28;20027;-73
2023/09/22 07:10:36;;;;;;;5.07;3.22;;;;;;;;;;5018616;28;20029;-74
2023/09/22 07:13:02;;;;;;;3.85;2.80;;;;;;;;;;5034578;28;20025;-74
2023/09/22 07:15:28;;;;;;;4.72;2.85;;;;;;;;;;5052721;28;20083;-74
2023/09/22 07:17:53;;;;;;;6.57;3.00;;;;;;;;;;5034321;28;20029;-73
2023/09/22 07:20:19;;;;;;;5.13;2.95;;;;;;;;;;5052321;28;20028;-73
2023/09/22 07:22:44;;;;;;;6.68;3.42;;;;;;;;;;5052844;28;20013;-73
2023/09/22 07:25:10;;;;;;;4.85;3.30;;;;;;;;;;5034554;28;20017;-73
2023/09/22 07:27:36;;;;;;;7.60;3.40;;;;;;;;;;5026071;28;20120;-74
2023/09/22 07:30:02;;;;;;;4.45;3.38;;;;;;;;;;4999562;28;20021;-73
2023/09/22 07:32:27;;;;;;;5.97;3.92;;;;;;;;;;5018466;28;20079;-73
2023/09/22 07:34:53;;;;;;;6.28;3.65;;;;;;;;;;5001768;28;20025;-73
2023/09/22 07:37:18;;;;;;;5.55;4.20;;;;;;;;;;5036247;28;20049;-73
2023/09/22 07:39:44;;;;;;;6.63;4.47;;;;;;;;;;5018551;28;20069;-73
2023/09/22 07:42:09;;;;;;;6.85;5.15;;;;;;;;;;5038986;28;20471;-73
2023/09/22 07:44:36;;;;;;;8.05;4.00;;;;;;;;;;5083406;23;20033;-76
2023/09/22 07:47:09;;;;;;;6.80;4.55;;;;;;;;;;5038225;28;20017;-77
2023/09/22 07:49:35;;;;;;;7.63;4.47;;;;;;;;;;5039770;28;20028;-76
2023/09/22 07:52:00;;;;;;;8.00;4.05;;;;;;;;;;5054997;28;20501;-74
2023/09/22 07:54:25;;;;;;;6.13;3.65;;;;;;;;;;5054842;28;20112;-76
2023/09/22 07:56:51;;;;;;;6.35;4.13;;;;;;;;;;5055657;28;20017;-76
2023/09/22 07:59:16;;;;;;;5.78;3.63;;;;;;;;;;5038872;28;20446;-76
2023/09/22 08:01:42;;;;;;;5.78;3.00;;;;;;;;;;5034759;28;20524;-75
2023/09/22 08:04:09;;;;;;;8.02;3.35;;;;;;;;;;5018502;28;20031;-76
2023/09/22 08:06:34;;;;;;;6.13;3.25;;;;;;;;;;5018824;28;20096;-75
2023/09/22 08:09:00;;;;;;;9.15;4.25;;;;;;;;;;5035968;28;20072;-75
2023/09/22 08:11:25;;;;;;;6.72;4.05;;;;;;;;;;5017932;28;20025;-75
2023/09/22 08:13:50;;;;;;;6.43;4.85;;;;;;;;;;5036116;28;20541;-75
2023/09/22 08:16:17;;;;;;;7.70;4.45;;;;;;;;;;5031944;28;20026;-75
2023/09/22 08:18:43;;;;;;;5.82;4.32;;;;;;;;;;5016045;28;20057;-75
2023/09/22 08:21:08;;;;;;;7.35;4.53;;;;;;;;;;4998008;28;20018;-75
2023/09/22 08:23:34;;;;;;;8.13;4.30;;;;;;;;;;5032272;28;20029;-74
2023/09/22 08:26:05;;;;;;;10.07;5.53;;;;;;;;;;5013341;28;20026;-75
2023/09/22 08:28:31;;;;;;;8.00;5.07;;;;;;;;;;5018320;28;20049;-75
2023/09/22 08:30:56;;;;;;;13.10;5.28;;;;;;;;;;5035031;28;20575;-75
2023/09/22 08:33:22;;;;;;;10.23;5.63;;;;;;;;;;5038742;28;20021;-74
2023/09/22 08:35:48;;;;;;;10.68;7.05;;;;;;;;;;5017462;28;20078;-75
2023/09/22 08:38:14;;;;;;;10.98;6.07;;;;;;;;;;5017631;28;20025;-75
2023/09/22 08:40:40;;;;;;;20.55;8.32;;;;;;;;;;5034640;28;20091;-72
2023/09/22 08:43:05;;;;;;;14.02;7.90;;;;;;;;;;5012693;28;20483;-73
2023/09/22 08:45:30;;;;;;;17.85;8.77;;;;;;;;;;5015093;28;20111;-72
2023/09/22 08:47:55;;;;;;;18.45;8.43;;;;;;;;;;5002426;28;20026;-72
2023/09/22 08:50:21;;;;;;;18.60;9.38;;;;;;;;;;5015092;28;20029;-72
2023/09/22 08:52:51;;;;;;;17.60;8.93;;;;;;;;;;5032810;28;20025;-72
2023/09/22 08:55:16;;;;;;;16.08;9.05;;;;;;;;;;5000569;28;20483;-72
2023/09/22 08:57:44;;;;;;;19.90;9.77;;;;;;;;;;5014303;28;20032;-72
2023/09/22 09:00:21;;;;;;;19.88;9.05;;;;;;;;;;5018610;28;20026;-72
2023/09/22 09:02:48;;;;;;;17.80;9.70;;;;;;;;;;4997381;28;20021;-71
2023/09/22 09:05:20;;;;;;;18.42;9.70;;;;;;;;;;5020484;28;20029;-71
2023/09/22 09:07:47;;;;;;;20.25;9.27;;;;;;;;;;5039494;28;20352;-71
2023/09/22 09:10:27;;;;;;;20.40;10.98;;;;;;;;;;5016296;28;20051;-71
2023/09/22 09:12:54;;;;;;;18.27;9.80;;;;;;;;;;5028965;28;20022;-70
2023/09/22 09:15:23;;;;;;;19.42;9.88;;;;;;;;;;5014570;28;20491;-70
2023/09/22 09:18:01;;;;;;;17.63;9.75;;;;;;;;;;5002788;28;20025;-70
2023/09/22 09:20:26;;;;;;;16.33;9.75;;;;;;;;;;4997159;28;20472;-71
2023/09/22 09:22:51;;;;;;;16.73;9.07;;;;;;;;;;5018663;28;20026;-71
2023/09/22 09:25:17;;;;;;;15.70;8.60;;;;;;;;;;5054326;28;20029;-71
2023/09/22 09:27:43;;;;;;;15.90;8.13;;;;;;;;;;5054082;28;20406;-71
2023/09/22 09:30:11;;;;;;;17.38;9.60;;;;;;;;;;5035663;28;20036;-71
2023/09/22 09:32:38;;;;;;;8.25;5.45;;;;;;;;;;5054387;28;20040;-71
2023/09/22 09:35:04;;;;;;;7.38;4.15;;;;;;;;;;5052836;28;20017;-71
2023/09/22 09:37:29;;;;;;;4.80;4.13;;;;;;;;;;5034340;28;20048;-71
2023/09/22 09:39:58;;;;;;;6.15;3.83;;;;;;;;;;5016212;28;20044;-71
2023/09/22 09:42:24;;;;;;;5.75;3.50;;;;;;;;;;5033967;28;20017;-71
2023/09/22 09:44:50;;;;;;;5.55;3.70;;;;;;;;;;5016815;28;20029;-71
2023/09/22 09:47:27;;;;;;;10.18;3.80;;;;;;;;;;5016808;28;20033;-71
2023/09/22 09:49:54;;;;;;;5.03;3.00;;;;;;;;;;5034250;28;20395;-71
2023/09/22 09:52:44;;;;;;;4.25;2.88;;;;;;;;;;5015439;28;20491;-71
2023/09/22 09:55:14;;;;;;;4.03;2.83;;;;;;;;;;5023092;28;20053;-71
2023/09/22 09:57:43;;;;;;;4.47;2.80;;;;;;;;;;5034424;28;20021;-71
2023/09/22 10:00:14;;;;;;;4.00;2.30;;;;;;;;;;5016886;28;20017;-71
2023/09/22 10:02:44;;;;;;;7.10;3.10;;;;;;;;;;5017155;28;20075;-71
2023/09/22 10:05:15;;;;;;;8.25;3.05;;;;;;;;;;5015846;28;20029;-71
2023/09/22 10:07:42;;;;;;;6.55;2.88;;;;;;;;;;5016950;28;20107;-71
2023/09/22 10:10:08;;;;;;;5.22;2.38;;;;;;;;;;5016367;28;20112;-71
2023/09/22 10:12:34;;;;;;;4.25;2.50;;;;;;;;;;5016096;28;20034;-71
2023/09/22 10:15:01;;;;;;;6.43;2.75;;;;;;;;;;5033999;28;20056;-71
2023/09/22 10:17:27;;;;;;;4.45;2.40;;;;;;;;;;5033348;28;20024;-70
2023/09/22 10:19:53;;;;;;;7.43;2.25;;;;;;;;;;5016128;28;20030;-71
2023/09/22 10:22:18;;;;;;;5.75;2.25;;;;;;;;;;5033984;28;20092;-71
2023/09/22 10:24:44;;;;;;;4.63;2.35;;;;;;;;;;5033591;28;20021;-71
2023/09/22 10:27:11;;;;;;;5.13;2.60;;;;;;;;;;5033327;28;20051;-71
2023/09/22 10:29:42;;;;;;;6.95;2.65;;;;;;;;;;5033709;28;20101;-71
2023/09/22 10:32:21;;;;;;;5.30;2.63;;;;;;;;;;5016045;28;20112;-71
2023/09/22 10:34:49;;;;;;;4.10;2.50;;;;;;;;;;5034156;28;20028;-71
2023/09/22 10:37:19;;;;;;;3.88;2.65;;;;;;;;;;5033572;28;20018;-71
2023/09/22 10:40:16;;;;;;;5.05;2.17;;;;;;;;;;4998977;28;20372;-71
2023/09/22 10:42:43;;;;;;;6.00;2.17;;;;;;;;;;5033992;28;20375;-71
2023/09/22 10:45:08;;;;;;;8.25;2.50;;;;;;;;;;4999318;28;20041;-71
2023/09/22 10:47:44;;;;;;;4.90;2.65;;;;;;;;;;5033692;28;20112;-71
2023/09/22 10:50:18;;;;;;;4.97;2.38;;;;;;;;;;5016684;28;20025;-71
2023/09/22 10:53:02;;;;;;;4.90;2.50;;;;;;;;;;5015824;28;20029;-71
2023/09/22 10:55:34;;;;;;;6.88;3.10;;;;;;;;;;4999672;28;20030;-71
2023/09/22 10:58:01;;;;;;;4.40;3.20;;;;;;;;;;4999788;28;20510;-71
2023/09/22 11:00:26;;;;;;;6.47;3.22;;;;;;;;;;5033504;28;20040;-71
2023/09/22 11:02:53;;;;;;;4.70;2.90;;;;;;;;;;5033174;28;20017;-71
2023/09/22 11:05:19;;;;;;;6.95;3.85;;;;;;;;;;5036195;28;20373;-71
2023/09/22 11:07:44;;;;;;;4.75;3.50;;;;;;;;;;5037240;28;20028;-71
2023/09/22 11:10:19;;;;;;;8.45;3.65;;;;;;;;;;5036732;28;20049;-71
2023/09/22 11:12:49;;;;;;;6.70;4.10;;;;;;;;;;5014389;28;20031;-71
2023/09/22 11:15:15;;;;;;;8.38;3.97;;;;;;;;;;5032779;28;20080;-71
2023/09/22 11:17:47;;;;;;;4.88;3.25;;;;;;;;;;5036570;28;20109;-74
2023/09/22 11:20:18;;;;;;;6.63;2.95;;;;;;;;;;5008870;28;20022;-73
2023/09/22 11:22:44;;;;;;;7.28;3.47;;;;;;;;;;5017457;28;20096;-74
2023/09/22 11:25:10;;;;;;;5.20;3.15;;;;;;;;;;5012528;28;20174;-75
2023/09/22 11:27:52;;;;;;;5.40;3.53;;;;;;;;;;5018906;28;20029;-75
2023/09/22 11:30:21;;;;;;;8.98;4.32;;;;;;;;;;5017570;28;20033;-75
2023/09/22 11:32:48;;;;;;;9.68;4.22;;;;;;;;;;5056366;28;20079;-75
2023/09/22 11:35:33;;;;;;;9.65;3.83;;;;;;;;;;5038606;28;20396;-74
2023/09/22 11:38:00;;;;;;;8.93;4.20;;;;;;;;;;5037903;28;20070;-75
2023/09/22 11:40:28;;;;;;;6.90;4.68;;;;;;;;;;5056157;28;20035;-75
2023/09/22 11:42:53;;;;;;;7.68;4.97;;;;;;;;;;5045141;28;20017;-75
2023/09/22 11:45:25;;;;;;;6.03;4.70;;;;;;;;;;5026600;28;20059;-75
2023/09/22 11:48:05;;;;;;;7.70;4.00;;;;;;;;;;5021760;28;20031;-75
2023/09/22 11:50:30;;;;;;;7.30;3.65;;;;;;;;;;5043819;28;20027;-74
2023/09/22 11:53:17;;;;;;;11.40;3.95;;;;;;;;;;5018062;28;20109;-75
2023/09/22 11:55:44;;;;;;;10.73;3.67;;;;;;;;;;5033738;28;20021;-76
2023/09/22 11:58:10;;;;;;;8.10;5.03;;;;;;;;;;5016322;28;20022;-75
2023/09/22 12:00:38;;;;;;;5.07;3.70;;;;;;;;;;4997961;28;20030;-75
2023/09/22 12:03:04;;;;;;;6.82;3.90;;;;;;;;;;5007063;28;20048;-75
2023/09/22 12:05:29;;;;;;;8.38;3.50;;;;;;;;;;5014673;28;20104;-75
2023/09/22 12:07:55;;;;;;;7.47;4.65;;;;;;;;;;5015007;28;20100;-75
2023/09/22 12:10:21;;;;;;;7.20;4.90;;;;;;;;;;5015690;28;20025;-75
2023/09/22 12:12:47;;;;;;;8.68;4.25;;;;;;;;;;5032840;28;20029;-75
2023/09/22 12:15:12;;;;;;;10.95;4.18;;;;;;;;;;5001139;28;20025;-75
2023/09/22 12:17:37;;;;;;;5.15;4.20;;;;;;;;;;5035082;28;20084;-75
2023/09/22 12:20:05;;;;;;;5.50;3.67;;;;;;;;;;5018110;28;20028;-75
2023/09/22 12:22:31;;;;;;;5.95;3.50;;;;;;;;;;5042213;28;20363;-72
2023/09/22 12:24:56;;;;;;;9.13;4.18;;;;;;;;;;5054968;28;20024;-72
2023/09/22 12:27:21;;;;;;;6.38;3.58;;;;;;;;;;5055503;28;20105;-72
2023/09/22 12:29:47;;;;;;;7.13;3.88;;;;;;;;;;5054993;28;20502;-72
2023/09/22 12:32:12;;;;;;;7.35;4.38;;;;;;;;;;5055291;28;20025;-72
2023/09/22 12:34:38;;;;;;;6.18;3.92;;;;;;;;;;5042262;28;20087;-72
2023/09/22 12:37:03;;;;;;;6.22;3.95;;;;;;;;;;5015613;28;20021;-72
2023/09/22 12:39:28;;;;;;;6.68;3.83;;;;;;;;;;5014670;28;20021;-72
2023/09/22 12:41:54;;;;;;;4.65;3.60;;;;;;;;;;5014390;28;20456;-72
2023/09/22 12:44:19;;;;;;;6.38;4.28;;;;;;;;;;5035133;28;20028;-72
2023/09/22 12:46:45;;;;;;;7.97;3.30;;;;;;;;;;5034754;28;20017;-72
2023/09/22 12:49:11;;;;;;;6.50;3.63;;;;;;;;;;5034855;28;20037;-72
2023/09/22 12:51:36;;;;;;;7.45;3.83;;;;;;;;;;5034963;28;20018;-72
2023/09/22 12:54:01;;;;;;;4.95;3.22;;;;;;;;;;5034879;28;20108;-72
2023/09/22 12:56:28;;;;;;;7.50;3.25;;;;;;;;;;5034702;28;20033;-72
2023/09/22 12:58:54;;;;;;;6.03;3.42;;;;;;;;;;5041332;28;20031;-72
2023/09/22 13:01:19;;;;;;;7.40;3.53;;;;;;;;;;5054787;28;20100;-72
2023/09/22 13:03:45;;;;;;;13.18;4.25;;;;;;;;;;5053899;28;20029;-72
2023/09/22 13:06:11;;;;;;;6.97;3.03;;;;;;;;;;5035938;28;20390;-72
2023/09/22 13:08:37;;;;;;;9.98;4.97;;;;;;;;;;5034522;28;20097;-72
2023/09/22 13:11:03;;;;;;;5.70;4.13;;;;;;;;;;5045505;28;20028;-72
2023/09/22 13:13:28;;;;;;;6.25;3.53;;;;;;;;;;5033500;28;20395;-72
2023/09/22 13:15:54;;;;;;;7.55;3.83;;;;;;;;;;5032055;28;20049;-72
2023/09/22 13:18:19;;;;;;;8.52;4.32;;;;;;;;;;5019031;28;20507;-73
2023/09/22 13:20:45;;;;;;;12.38;3.88;;;;;;;;;;5018254;28;20017;-72
2023/09/22 13:23:11;;;;;;;6.60;3.92;;;;;;;;;;5016961;28;20027;-73
2023/09/22 13:25:40;;;;;;;8.32;4.30;;;;;;;;;;5034385;28;20021;-72
2023/09/22 13:28:09;;;;;;;8.95;3.95;;;;;;;;;;5033074;28;20430;-72
2023/09/22 13:30:40;;;;;;;8.23;3.85;;;;;;;;;;5016590;28;20029;-72
2023/09/22 13:33:05;;;;;;;12.00;4.63;;;;;;;;;;5028892;28;20029;-70
2023/09/22 13:35:32;;;;;;;9.90;3.88;;;;;;;;;;5054119;28;20517;-73
2023/09/22 13:37:58;;;;;;;8.30;4.57;;;;;;;;;;5054093;28;20029;-73
2023/09/22 13:40:23;;;;;;;7.75;4.00;;;;;;;;;;5034369;28;20507;-73
2023/09/22 13:42:49;;;;;;;7.97;4.22;;;;;;;;;;5033992;28;20018;-73
2023/09/22 13:45:14;;;;;;;4.78;3.40;;;;;;;;;;5070734;23;20231;-75
2023/09/22 13:47:39;;;;;;;8.98;3.45;;;;;;;;;;5073377;28;20026;-76
2023/09/22 13:50:05;;;;;;;10.20;4.85;;;;;;;;;;5067620;28;20013;-72
2023/09/22 13:52:31;;;;;;;9.00;4.10;;;;;;;;;;5053343;28;20104;-71
2023/09/22 13:54:56;;;;;;;6.65;3.97;;;;;;;;;;5035212;28;20115;-71
2023/09/22 13:57:21;;;;;;;8.07;4.03;;;;;;;;;;5052783;28;20021;-71
2023/09/22 13:59:46;;;;;;;7.75;4.30;;;;;;;;;;5053053;28;20025;-72
2023/09/22 14:02:12;;;;;;;8.95;4.65;;;;;;;;;;5052991;28;20021;-71
2023/09/22 14:04:37;;;;;;;6.90;4.28;;;;;;;;;;5052759;28;20100;-71
2023/09/22 14:07:03;;;;;;;5.38;2.83;;;;;;;;;;5052475;28;20025;-71
2023/09/22 14:09:28;;;;;;;6.10;3.63;;;;;;;;;;5051808;28;20100;-71
2023/09/22 14:11:54;;;;;;;4.40;2.53;;;;;;;;;;5052939;28;20033;-71
2023/09/22 14:14:20;;;;;;;6.50;2.75;;;;;;;;;;5051846;28;20024;-71
2023/09/22 14:16:46;;;;;;;5.30;2.53;;;;;;;;;;5051819;28;20021;-71
2023/09/22 14:19:12;;;;;;;6.38;3.08;;;;;;;;;;5051281;28;20104;-71
2023/09/22 14:21:38;;;;;;;4.50;2.58;;;;;;;;;;5029036;28;20113;-71
2023/09/22 14:24:04;;;;;;;5.60;2.70;;;;;;;;;;5015379;28;20028;-71
2023/09/22 14:26:29;;;;;;;5.53;2.70;;;;;;;;;;5032907;28;20037;-72
2023/09/22 14:28:55;;;;;;;9.40;3.22;;;;;;;;;;5033497;28;20541;-71
2023/09/22 14:31:20;;;;;;;4.65;2.90;;;;;;;;;;5033144;28;20022;-72
2023/09/22 14:33:45;;;;;;;9.10;3.83;;;;;;;;;;5032947;28;20104;-71
2023/09/22 14:36:11;;;;;;;6.20;2.92;;;;;;;;;;5033223;28;20110;-71
2023/09/22 14:38:36;;;;;;;7.22;3.40;;;;;;;;;;5033141;28;20025;-71